sensor_id;sensor_type;location;lat;lon;timestamp;P1;durP1;ratioP1;P2;durP2;ratioP2
58661;SDS011;44432;49.786;22.760;2023-06-19T00:01:10;28.30;;;6.00;;
58661;SDS011;44432;49.786;22.760;2023-06-19T00:03:41;28.30;;;5.60;;
58661;SDS011;44432;49.786;22.760;2023-06-19T00:06:11;14.90;;;5.20;;
58661;SDS011;44432;49.786;22.760;2023-06-19T00:08:42;55.20;;;6.30;;
58661;SDS011;44432;49.786;22.760;2023-06-19T00:11:13;25.60;;;5.90;;
58661;SDS011;44432;49.786;22.760;2023-06-19T00:13:43;35.90;;;6.00;;
58661;SDS011;44432;49.786;22.760;2023-06-19T00:16:14;23.40;;;5.50;;
58661;SDS011;44432;49.786;22.760;2023-06-19T00:18:45;29.80;;;5.90;;
58661;SDS011;44432;49.786;22.760;2023-06-19T00:21:16;28.40;;;5.90;;
58661;SDS011;44432;49.786;22.760;2023-06-19T00:23:47;22.60;;;5.00;;
58661;SDS011;44432;49.786;22.760;2023-06-19T00:26:18;20.30;;;5.60;;
58661;SDS011;44432;49.786;22.760;2023-06-19T00:28:50;18.50;;;5.50;;
58661;SDS011;44432;49.786;22.760;2023-06-19T00:31:20;15.70;;;5.60;;
58661;SDS011;44432;49.786;22.760;2023-06-19T00:33:51;39.00;;;5.70;;
58661;SDS011;44432;49.786;22.760;2023-06-19T00:36:22;27.50;;;5.50;;
58661;SDS011;44432;49.786;22.760;2023-06-19T00:38:53;23.80;;;6.00;;
58661;SDS011;44432;49.786;22.760;2023-06-19T00:41:25;16.40;;;6.10;;
58661;SDS011;44432;49.786;22.760;2023-06-19T00:43:58;18.60;;;5.40;;
58661;SDS011;44432;49.786;22.760;2023-06-19T00:46:29;34.40;;;6.20;;
58661;SDS011;44432;49.786;22.760;2023-06-19T00:49:00;17.90;;;5.50;;
58661;SDS011;44432;49.786;22.760;2023-06-19T00:51:31;22.20;;;4.90;;
58661;SDS011;44432;49.786;22.760;2023-06-19T00:54:02;12.20;;;5.00;;
58661;SDS011;44432;49.786;22.760;2023-06-19T00:56:33;15.80;;;4.60;;
58661;SDS011;44432;49.786;22.760;2023-06-19T00:59:13;23.40;;;4.80;;
58661;SDS011;44432;49.786;22.760;2023-06-19T01:01:46;11.80;;;4.90;;
58661;SDS011;44432;49.786;22.760;2023-06-19T01:04:17;19.40;;;5.00;;
58661;SDS011;44432;49.786;22.760;2023-06-19T01:06:50;13.20;;;4.80;;
58661;SDS011;44432;49.786;22.760;2023-06-19T01:09:28;9.50;;;4.60;;
58661;SDS011;44432;49.786;22.760;2023-06-19T01:12:04;12.00;;;4.80;;
58661;SDS011;44432;49.786;22.760;2023-06-19T01:14:40;18.40;;;4.90;;
58661;SDS011;44432;49.786;22.760;2023-06-19T01:17:17;19.70;;;4.80;;
58661;SDS011;44432;49.786;22.760;2023-06-19T01:19:47;15.80;;;4.80;;
58661;SDS011;44432;49.786;22.760;2023-06-19T01:22:28;10.40;;;5.00;;
58661;SDS011;44432;49.786;22.760;2023-06-19T01:24:59;17.30;;;5.00;;
58661;SDS011;44432;49.786;22.760;2023-06-19T01:27:31;18.90;;;4.30;;
58661;SDS011;44432;49.786;22.760;2023-06-19T01:30:02;14.30;;;4.40;;
58661;SDS011;44432;49.786;22.760;2023-06-19T01:32:36;12.50;;;5.20;;
58661;SDS011;44432;49.786;22.760;2023-06-19T01:35:17;18.40;;;4.80;;
58661;SDS011;44432;49.786;22.760;2023-06-19T01:37:56;51.90;;;5.40;;
58661;SDS011;44432;49.786;22.760;2023-06-19T01:40:28;39.20;;;5.10;;
58661;SDS011;44432;49.786;22.760;2023-06-19T01:42:59;27.60;;;4.90;;
58661;SDS011;44432;49.786;22.760;2023-06-19T01:45:32;25.10;;;4.60;;
58661;SDS011;44432;49.786;22.760;2023-06-19T01:48:03;28.60;;;4.60;;
58661;SDS011;44432;49.786;22.760;2023-06-19T01:50:34;32.40;;;4.40;;
58661;SDS011;44432;49.786;22.760;2023-06-19T01:53:05;70.10;;;6.00;;
58661;SDS011;44432;49.786;22.760;2023-06-19T01:55:35;60.40;;;4.90;;
58661;SDS011;44432;49.786;22.760;2023-06-19T01:58:06;58.40;;;5.20;;
58661;SDS011;44432;49.786;22.760;2023-06-19T02:00:37;30.50;;;4.20;;
58661;SDS011;44432;49.786;22.760;2023-06-19T02:03:08;26.30;;;4.40;;
58661;SDS011;44432;49.786;22.760;2023-06-19T02:05:39;67.70;;;4.90;;
58661;SDS011;44432;49.786;22.760;2023-06-19T02:08:09;92.60;;;6.20;;
58661;SDS011;44432;49.786;22.760;2023-06-19T02:10:40;33.30;;;5.60;;
58661;SDS011;44432;49.786;22.760;2023-06-19T02:13:10;38.50;;;4.60;;
58661;SDS011;44432;49.786;22.760;2023-06-19T02:15:41;60.20;;;5.40;;
58661;SDS011;44432;49.786;22.760;2023-06-19T02:18:12;25.10;;;4.20;;
58661;SDS011;44432;49.786;22.760;2023-06-19T02:20:42;26.10;;;4.30;;
58661;SDS011;44432;49.786;22.760;2023-06-19T02:23:13;46.00;;;5.20;;
58661;SDS011;44432;49.786;22.760;2023-06-19T02:25:44;50.20;;;5.40;;
58661;SDS011;44432;49.786;22.760;2023-06-19T02:28:14;71.60;;;6.70;;
58661;SDS011;44432;49.786;22.760;2023-06-19T02:30:45;39.70;;;4.50;;
58661;SDS011;44432;49.786;22.760;2023-06-19T02:33:15;34.70;;;4.90;;
58661;SDS011;44432;49.786;22.760;2023-06-19T02:35:46;41.50;;;4.40;;
58661;SDS011;44432;49.786;22.760;2023-06-19T02:38:17;23.70;;;4.30;;
58661;SDS011;44432;49.786;22.760;2023-06-19T02:40:49;28.10;;;4.80;;
58661;SDS011;44432;49.786;22.760;2023-06-19T02:43:19;23.70;;;4.70;;
58661;SDS011;44432;49.786;22.760;2023-06-19T02:45:50;16.70;;;4.50;;
58661;SDS011;44432;49.786;22.760;2023-06-19T02:48:21;32.90;;;4.10;;
58661;SDS011;44432;49.786;22.760;2023-06-19T02:50:51;48.70;;;4.70;;
58661;SDS011;44432;49.786;22.760;2023-06-19T02:53:22;20.30;;;4.20;;
58661;SDS011;44432;49.786;22.760;2023-06-19T02:55:53;21.60;;;4.50;;
58661;SDS011;44432;49.786;22.760;2023-06-19T02:58:23;25.30;;;4.80;;
58661;SDS011;44432;49.786;22.760;2023-06-19T03:00:54;36.40;;;4.80;;
58661;SDS011;44432;49.786;22.760;2023-06-19T03:03:25;61.00;;;4.70;;
58661;SDS011;44432;49.786;22.760;2023-06-19T03:05:55;18.90;;;4.20;;
58661;SDS011;44432;49.786;22.760;2023-06-19T03:08:27;40.80;;;4.90;;
58661;SDS011;44432;49.786;22.760;2023-06-19T03:10:58;9.00;;;3.90;;
58661;SDS011;44432;49.786;22.760;2023-06-19T03:13:35;8.30;;;3.50;;
58661;SDS011;44432;49.786;22.760;2023-06-19T03:16:14;9.60;;;4.10;;
58661;SDS011;44432;49.786;22.760;2023-06-19T03:18:45;18.40;;;4.30;;
58661;SDS011;44432;49.786;22.760;2023-06-19T03:21:16;20.30;;;4.30;;
58661;SDS011;44432;49.786;22.760;2023-06-19T03:23:49;11.90;;;4.30;;
58661;SDS011;44432;49.786;22.760;2023-06-19T03:26:20;13.60;;;4.00;;
58661;SDS011;44432;49.786;22.760;2023-06-19T03:28:53;12.80;;;3.90;;
58661;SDS011;44432;49.786;22.760;2023-06-19T03:31:24;6.20;;;3.90;;
58661;SDS011;44432;49.786;22.760;2023-06-19T03:33:54;5.80;;;3.40;;
58661;SDS011;44432;49.786;22.760;2023-06-19T03:36:25;5.50;;;3.60;;
58661;SDS011;44432;49.786;22.760;2023-06-19T03:38:55;8.70;;;3.20;;
58661;SDS011;44432;49.786;22.760;2023-06-19T03:41:26;9.80;;;4.00;;
58661;SDS011;44432;49.786;22.760;2023-06-19T03:43:57;8.50;;;3.10;;
58661;SDS011;44432;49.786;22.760;2023-06-19T03:46:27;21.40;;;3.70;;
58661;SDS011;44432;49.786;22.760;2023-06-19T03:48:58;15.20;;;3.30;;
58661;SDS011;44432;49.786;22.760;2023-06-19T03:51:30;24.00;;;4.30;;
58661;SDS011;44432;49.786;22.760;2023-06-19T03:54:01;25.50;;;3.60;;
58661;SDS011;44432;49.786;22.760;2023-06-19T03:56:32;29.40;;;3.70;;
58661;SDS011;44432;49.786;22.760;2023-06-19T03:59:02;33.70;;;4.00;;
58661;SDS011;44432;49.786;22.760;2023-06-19T04:01:33;26.30;;;4.40;;
58661;SDS011;44432;49.786;22.760;2023-06-19T04:04:04;25.10;;;3.60;;
58661;SDS011;44432;49.786;22.760;2023-06-19T04:06:34;18.10;;;3.30;;
58661;SDS011;44432;49.786;22.760;2023-06-19T04:09:05;18.40;;;4.50;;
58661;SDS011;44432;49.786;22.760;2023-06-19T04:11:36;17.80;;;4.60;;
58661;SDS011;44432;49.786;22.760;2023-06-19T04:14:07;11.10;;;3.90;;
58661;SDS011;44432;49.786;22.760;2023-06-19T04:16:37;6.00;;;3.00;;
58661;SDS011;44432;49.786;22.760;2023-06-19T04:19:08;4.90;;;3.30;;
58661;SDS011;44432;49.786;22.760;2023-06-19T04:21:39;9.40;;;4.50;;
58661;SDS011;44432;49.786;22.760;2023-06-19T04:24:10;9.20;;;3.20;;
58661;SDS011;44432;49.786;22.760;2023-06-19T04:26:40;8.90;;;3.60;;
58661;SDS011;44432;49.786;22.760;2023-06-19T04:29:11;9.90;;;4.00;;
58661;SDS011;44432;49.786;22.760;2023-06-19T04:34:15;13.00;;;4.50;;
58661;SDS011;44432;49.786;22.760;2023-06-19T04:36:48;11.80;;;4.00;;
58661;SDS011;44432;49.786;22.760;2023-06-19T04:39:19;6.20;;;3.60;;
58661;SDS011;44432;49.786;22.760;2023-06-19T04:41:49;9.50;;;4.40;;
58661;SDS011;44432;49.786;22.760;2023-06-19T04:44:20;7.20;;;4.30;;
58661;SDS011;44432;49.786;22.760;2023-06-19T04:46:51;5.70;;;3.30;;
58661;SDS011;44432;49.786;22.760;2023-06-19T04:49:29;14.40;;;3.70;;
58661;SDS011;44432;49.786;22.760;2023-06-19T04:51:59;11.70;;;3.80;;
58661;SDS011;44432;49.786;22.760;2023-06-19T04:54:30;5.10;;;3.20;;
58661;SDS011;44432;49.786;22.760;2023-06-19T04:57:01;12.30;;;3.90;;
58661;SDS011;44432;49.786;22.760;2023-06-19T04:59:32;4.80;;;3.40;;
58661;SDS011;44432;49.786;22.760;2023-06-19T05:02:04;6.30;;;3.80;;
58661;SDS011;44432;49.786;22.760;2023-06-19T05:04:35;6.60;;;3.50;;
58661;SDS011;44432;49.786;22.760;2023-06-19T05:07:06;9.30;;;3.60;;
58661;SDS011;44432;49.786;22.760;2023-06-19T05:09:38;4.60;;;3.60;;
58661;SDS011;44432;49.786;22.760;2023-06-19T05:12:09;5.80;;;3.80;;
58661;SDS011;44432;49.786;22.760;2023-06-19T05:14:40;4.50;;;3.40;;
58661;SDS011;44432;49.786;22.760;2023-06-19T05:17:11;5.10;;;3.90;;
58661;SDS011;44432;49.786;22.760;2023-06-19T05:19:41;5.80;;;4.00;;
58661;SDS011;44432;49.786;22.760;2023-06-19T05:22:12;7.40;;;4.00;;
58661;SDS011;44432;49.786;22.760;2023-06-19T05:24:43;5.20;;;3.90;;
58661;SDS011;44432;49.786;22.760;2023-06-19T05:27:13;10.40;;;4.40;;
58661;SDS011;44432;49.786;22.760;2023-06-19T05:29:44;4.70;;;4.00;;
58661;SDS011;44432;49.786;22.760;2023-06-19T05:32:15;6.00;;;4.50;;
58661;SDS011;44432;49.786;22.760;2023-06-19T05:34:46;6.50;;;4.10;;
58661;SDS011;44432;49.786;22.760;2023-06-19T05:37:17;6.90;;;4.20;;
58661;SDS011;44432;49.786;22.760;2023-06-19T05:39:49;8.00;;;6.60;;
58661;SDS011;44432;49.786;22.760;2023-06-19T05:42:20;8.00;;;4.20;;
58661;SDS011;44432;49.786;22.760;2023-06-19T05:44:51;8.00;;;4.90;;
58661;SDS011;44432;49.786;22.760;2023-06-19T05:47:21;6.40;;;4.30;;
58661;SDS011;44432;49.786;22.760;2023-06-19T05:49:53;8.90;;;5.90;;
58661;SDS011;44432;49.786;22.760;2023-06-19T05:52:24;5.70;;;4.70;;
58661;SDS011;44432;49.786;22.760;2023-06-19T05:54:54;5.70;;;4.50;;
58661;SDS011;44432;49.786;22.760;2023-06-19T05:57:26;8.20;;;4.30;;
58661;SDS011;44432;49.786;22.760;2023-06-19T05:59:56;7.20;;;4.70;;
58661;SDS011;44432;49.786;22.760;2023-06-19T06:02:27;4.60;;;4.00;;
58661;SDS011;44432;49.786;22.760;2023-06-19T06:04:58;6.30;;;3.90;;
58661;SDS011;44432;49.786;22.760;2023-06-19T06:07:28;5.50;;;5.00;;
58661;SDS011;44432;49.786;22.760;2023-06-19T06:09:59;7.90;;;3.80;;
58661;SDS011;44432;49.786;22.760;2023-06-19T06:12:29;7.10;;;4.80;;
58661;SDS011;44432;49.786;22.760;2023-06-19T06:15:03;10.20;;;4.30;;
58661;SDS011;44432;49.786;22.760;2023-06-19T06:17:35;8.40;;;4.60;;
58661;SDS011;44432;49.786;22.760;2023-06-19T06:20:06;8.10;;;4.80;;
58661;SDS011;44432;49.786;22.760;2023-06-19T06:22:39;5.00;;;4.40;;
58661;SDS011;44432;49.786;22.760;2023-06-19T06:25:11;4.90;;;3.90;;
58661;SDS011;44432;49.786;22.760;2023-06-19T06:27:42;5.40;;;4.70;;
58661;SDS011;44432;49.786;22.760;2023-06-19T06:30:13;7.60;;;5.00;;
58661;SDS011;44432;49.786;22.760;2023-06-19T06:32:44;11.10;;;6.60;;
58661;SDS011;44432;49.786;22.760;2023-06-19T06:35:15;10.50;;;5.70;;
58661;SDS011;44432;49.786;22.760;2023-06-19T06:37:46;9.50;;;5.60;;
58661;SDS011;44432;49.786;22.760;2023-06-19T06:40:17;7.80;;;5.20;;
58661;SDS011;44432;49.786;22.760;2023-06-19T06:42:48;7.90;;;5.30;;
58661;SDS011;44432;49.786;22.760;2023-06-19T06:45:19;11.00;;;6.50;;
58661;SDS011;44432;49.786;22.760;2023-06-19T06:47:50;6.90;;;5.50;;
58661;SDS011;44432;49.786;22.760;2023-06-19T06:50:21;8.80;;;6.00;;
58661;SDS011;44432;49.786;22.760;2023-06-19T06:52:51;8.60;;;6.10;;
58661;SDS011;44432;49.786;22.760;2023-06-19T06:55:22;7.60;;;5.30;;
58661;SDS011;44432;49.786;22.760;2023-06-19T06:57:53;6.30;;;5.70;;
58661;SDS011;44432;49.786;22.760;2023-06-19T07:00:23;6.50;;;5.80;;
58661;SDS011;44432;49.786;22.760;2023-06-19T07:02:54;6.10;;;5.40;;
58661;SDS011;44432;49.786;22.760;2023-06-19T07:05:25;8.10;;;5.60;;
58661;SDS011;44432;49.786;22.760;2023-06-19T07:07:57;10.10;;;6.00;;
58661;SDS011;44432;49.786;22.760;2023-06-19T07:10:28;8.60;;;5.60;;
58661;SDS011;44432;49.786;22.760;2023-06-19T07:12:59;8.40;;;6.30;;
58661;SDS011;44432;49.786;22.760;2023-06-19T07:15:29;6.70;;;5.60;;
58661;SDS011;44432;49.786;22.760;2023-06-19T07:18:02;6.30;;;5.60;;
58661;SDS011;44432;49.786;22.760;2023-06-19T07:20:33;9.40;;;5.90;;
58661;SDS011;44432;49.786;22.760;2023-06-19T07:23:04;6.50;;;5.80;;
58661;SDS011;44432;49.786;22.760;2023-06-19T07:25:35;7.60;;;5.50;;
58661;SDS011;44432;49.786;22.760;2023-06-19T07:28:05;6.30;;;5.60;;
58661;SDS011;44432;49.786;22.760;2023-06-19T07:30:36;7.00;;;6.20;;
58661;SDS011;44432;49.786;22.760;2023-06-19T07:33:08;8.30;;;5.60;;
58661;SDS011;44432;49.786;22.760;2023-06-19T07:35:38;6.40;;;5.50;;
58661;SDS011;44432;49.786;22.760;2023-06-19T07:38:09;7.80;;;6.10;;
58661;SDS011;44432;49.786;22.760;2023-06-19T07:40:39;8.80;;;5.30;;
58661;SDS011;44432;49.786;22.760;2023-06-19T07:43:10;8.10;;;5.80;;
58661;SDS011;44432;49.786;22.760;2023-06-19T07:45:41;8.20;;;6.10;;
58661;SDS011;44432;49.786;22.760;2023-06-19T07:48:11;7.10;;;6.00;;
58661;SDS011;44432;49.786;22.760;2023-06-19T07:50:42;8.30;;;5.90;;
58661;SDS011;44432;49.786;22.760;2023-06-19T07:53:13;7.40;;;5.70;;
58661;SDS011;44432;49.786;22.760;2023-06-19T07:55:44;7.50;;;6.10;;
58661;SDS011;44432;49.786;22.760;2023-06-19T07:58:15;8.80;;;6.20;;
58661;SDS011;44432;49.786;22.760;2023-06-19T08:00:46;9.60;;;5.90;;
58661;SDS011;44432;49.786;22.760;2023-06-19T08:03:16;9.00;;;6.30;;
58661;SDS011;44432;49.786;22.760;2023-06-19T08:05:47;9.70;;;6.70;;
58661;SDS011;44432;49.786;22.760;2023-06-19T08:08:18;7.70;;;5.90;;
58661;SDS011;44432;49.786;22.760;2023-06-19T08:10:49;7.00;;;5.80;;
58661;SDS011;44432;49.786;22.760;2023-06-19T08:13:20;9.10;;;8.00;;
58661;SDS011;44432;49.786;22.760;2023-06-19T08:15:51;7.70;;;6.80;;
58661;SDS011;44432;49.786;22.760;2023-06-19T08:18:22;8.00;;;7.10;;
58661;SDS011;44432;49.786;22.760;2023-06-19T08:20:52;8.50;;;5.80;;
58661;SDS011;44432;49.786;22.760;2023-06-19T08:23:23;10.60;;;7.10;;
58661;SDS011;44432;49.786;22.760;2023-06-19T08:25:53;8.00;;;6.30;;
58661;SDS011;44432;49.786;22.760;2023-06-19T08:28:24;8.00;;;6.50;;
58661;SDS011;44432;49.786;22.760;2023-06-19T08:30:55;9.00;;;6.50;;
58661;SDS011;44432;49.786;22.760;2023-06-19T08:33:26;13.70;;;7.20;;
58661;SDS011;44432;49.786;22.760;2023-06-19T08:35:57;6.80;;;5.60;;
58661;SDS011;44432;49.786;22.760;2023-06-19T08:38:27;9.50;;;6.60;;
58661;SDS011;44432;49.786;22.760;2023-06-19T08:40:58;7.60;;;6.30;;
58661;SDS011;44432;49.786;22.760;2023-06-19T08:43:29;6.40;;;5.70;;
58661;SDS011;44432;49.786;22.760;2023-06-19T08:46:03;6.80;;;5.70;;
58661;SDS011;44432;49.786;22.760;2023-06-19T08:48:38;6.70;;;5.50;;
58661;SDS011;44432;49.786;22.760;2023-06-19T08:51:09;6.80;;;5.50;;
58661;SDS011;44432;49.786;22.760;2023-06-19T08:53:45;7.50;;;5.80;;
58661;SDS011;44432;49.786;22.760;2023-06-19T08:56:19;7.60;;;5.50;;
58661;SDS011;44432;49.786;22.760;2023-06-19T08:58:49;7.80;;;6.00;;
58661;SDS011;44432;49.786;22.760;2023-06-19T09:01:20;6.20;;;5.60;;
58661;SDS011;44432;49.786;22.760;2023-06-19T09:03:51;5.70;;;5.00;;
58661;SDS011;44432;49.786;22.760;2023-06-19T09:06:22;7.30;;;5.20;;
58661;SDS011;44432;49.786;22.760;2023-06-19T09:08:58;7.60;;;5.10;;
58661;SDS011;44432;49.786;22.760;2023-06-19T09:11:30;5.90;;;4.90;;
58661;SDS011;44432;49.786;22.760;2023-06-19T09:14:01;7.00;;;5.20;;
58661;SDS011;44432;49.786;22.760;2023-06-19T09:16:37;9.50;;;5.10;;
58661;SDS011;44432;49.786;22.760;2023-06-19T09:19:09;7.10;;;5.60;;
58661;SDS011;44432;49.786;22.760;2023-06-19T09:21:39;8.10;;;4.90;;
58661;SDS011;44432;49.786;22.760;2023-06-19T09:24:10;12.30;;;5.80;;
58661;SDS011;44432;49.786;22.760;2023-06-19T09:26:41;6.90;;;5.10;;
58661;SDS011;44432;49.786;22.760;2023-06-19T09:29:12;6.50;;;5.50;;
58661;SDS011;44432;49.786;22.760;2023-06-19T09:31:45;6.40;;;5.20;;
58661;SDS011;44432;49.786;22.760;2023-06-19T09:34:16;8.40;;;5.40;;
58661;SDS011;44432;49.786;22.760;2023-06-19T09:36:47;6.10;;;4.70;;
58661;SDS011;44432;49.786;22.760;2023-06-19T09:39:19;7.10;;;4.90;;
58661;SDS011;44432;49.786;22.760;2023-06-19T09:41:52;6.30;;;4.70;;
58661;SDS011;44432;49.786;22.760;2023-06-19T09:44:26;6.60;;;5.20;;
58661;SDS011;44432;49.786;22.760;2023-06-19T09:47:00;5.80;;;4.70;;
58661;SDS011;44432;49.786;22.760;2023-06-19T09:49:47;7.40;;;5.00;;
58661;SDS011;44432;49.786;22.760;2023-06-19T09:52:22;6.60;;;5.00;;
58661;SDS011;44432;49.786;22.760;2023-06-19T09:54:53;7.50;;;4.50;;
58661;SDS011;44432;49.786;22.760;2023-06-19T09:57:25;8.90;;;5.00;;
58661;SDS011;44432;49.786;22.760;2023-06-19T09:59:56;5.50;;;4.50;;
58661;SDS011;44432;49.786;22.760;2023-06-19T10:02:37;5.90;;;4.50;;
58661;SDS011;44432;49.786;22.760;2023-06-19T10:05:09;5.90;;;4.60;;
58661;SDS011;44432;49.786;22.760;2023-06-19T10:07:42;7.30;;;4.90;;
58661;SDS011;44432;49.786;22.760;2023-06-19T10:10:23;5.20;;;4.50;;
58661;SDS011;44432;49.786;22.760;2023-06-19T10:12:57;5.80;;;4.60;;
58661;SDS011;44432;49.786;22.760;2023-06-19T10:15:28;6.00;;;4.50;;
58661;SDS011;44432;49.786;22.760;2023-06-19T10:18:01;6.70;;;4.90;;
58661;SDS011;44432;49.786;22.760;2023-06-19T10:20:34;5.30;;;4.70;;
58661;SDS011;44432;49.786;22.760;2023-06-19T10:25:38;5.30;;;4.20;;
58661;SDS011;44432;49.786;22.760;2023-06-19T10:28:17;5.00;;;4.40;;
58661;SDS011;44432;49.786;22.760;2023-06-19T10:30:55;5.80;;;4.40;;
58661;SDS011;44432;49.786;22.760;2023-06-19T10:33:27;5.30;;;4.70;;
58661;SDS011;44432;49.786;22.760;2023-06-19T10:36:00;6.50;;;3.80;;
58661;SDS011;44432;49.786;22.760;2023-06-19T10:38:41;4.40;;;3.60;;
58661;SDS011;44432;49.786;22.760;2023-06-19T10:41:15;9.00;;;5.20;;
58661;SDS011;44432;49.786;22.760;2023-06-19T10:43:53;10.50;;;5.60;;
58661;SDS011;44432;49.786;22.760;2023-06-19T10:46:28;12.50;;;6.00;;
58661;SDS011;44432;49.786;22.760;2023-06-19T10:48:59;9.60;;;5.40;;
58661;SDS011;44432;49.786;22.760;2023-06-19T10:51:33;10.00;;;5.60;;
58661;SDS011;44432;49.786;22.760;2023-06-19T10:54:05;7.50;;;6.10;;
58661;SDS011;44432;49.786;22.760;2023-06-19T10:56:36;10.60;;;6.90;;
58661;SDS011;44432;49.786;22.760;2023-06-19T10:59:07;9.90;;;7.10;;
58661;SDS011;44432;49.786;22.760;2023-06-19T11:01:39;7.60;;;6.00;;
58661;SDS011;44432;49.786;22.760;2023-06-19T11:04:12;9.10;;;6.20;;
58661;SDS011;44432;49.786;22.760;2023-06-19T11:06:44;9.00;;;6.80;;
58661;SDS011;44432;49.786;22.760;2023-06-19T11:09:15;7.60;;;5.30;;
58661;SDS011;44432;49.786;22.760;2023-06-19T11:11:47;7.70;;;5.40;;
58661;SDS011;44432;49.786;22.760;2023-06-19T11:14:18;7.00;;;5.80;;
58661;SDS011;44432;49.786;22.760;2023-06-19T11:16:48;6.20;;;5.50;;
58661;SDS011;44432;49.786;22.760;2023-06-19T11:19:20;7.40;;;6.00;;
58661;SDS011;44432;49.786;22.760;2023-06-19T11:21:51;8.20;;;6.30;;
58661;SDS011;44432;49.786;22.760;2023-06-19T11:24:22;6.80;;;5.90;;
58661;SDS011;44432;49.786;22.760;2023-06-19T11:26:53;9.80;;;5.70;;
58661;SDS011;44432;49.786;22.760;2023-06-19T11:29:28;6.60;;;5.70;;
58661;SDS011;44432;49.786;22.760;2023-06-19T11:32:07;7.80;;;5.50;;
58661;SDS011;44432;49.786;22.760;2023-06-19T11:34:39;10.00;;;5.90;;
58661;SDS011;44432;49.786;22.760;2023-06-19T11:37:14;8.70;;;5.90;;
58661;SDS011;44432;49.786;22.760;2023-06-19T11:39:46;9.20;;;5.50;;
58661;SDS011;44432;49.786;22.760;2023-06-19T11:42:20;6.60;;;5.00;;
58661;SDS011;44432;49.786;22.760;2023-06-19T11:44:56;6.10;;;5.50;;
58661;SDS011;44432;49.786;22.760;2023-06-19T11:47:30;8.00;;;5.30;;
58661;SDS011;44432;49.786;22.760;2023-06-19T11:50:03;6.10;;;4.70;;
58661;SDS011;44432;49.786;22.760;2023-06-19T11:52:35;6.10;;;4.70;;
58661;SDS011;44432;49.786;22.760;2023-06-19T11:55:06;6.40;;;4.80;;
58661;SDS011;44432;49.786;22.760;2023-06-19T11:57:38;7.80;;;5.30;;
58661;SDS011;44432;49.786;22.760;2023-06-19T12:00:18;7.40;;;4.70;;
58661;SDS011;44432;49.786;22.760;2023-06-19T12:02:49;7.80;;;5.30;;
58661;SDS011;44432;49.786;22.760;2023-06-19T12:05:21;7.00;;;4.60;;
58661;SDS011;44432;49.786;22.760;2023-06-19T12:07:52;6.80;;;4.80;;
58661;SDS011;44432;49.786;22.760;2023-06-19T12:10:22;5.30;;;4.40;;
58661;SDS011;44432;49.786;22.760;2023-06-19T12:12:53;6.80;;;4.90;;
58661;SDS011;44432;49.786;22.760;2023-06-19T12:15:24;5.60;;;4.90;;
58661;SDS011;44432;49.786;22.760;2023-06-19T12:17:55;6.30;;;5.50;;
58661;SDS011;44432;49.786;22.760;2023-06-19T12:20:26;6.10;;;5.00;;
58661;SDS011;44432;49.786;22.760;2023-06-19T12:22:57;5.40;;;4.50;;
58661;SDS011;44432;49.786;22.760;2023-06-19T12:25:28;6.00;;;4.80;;
58661;SDS011;44432;49.786;22.760;2023-06-19T12:27:59;8.70;;;5.00;;
58661;SDS011;44432;49.786;22.760;2023-06-19T12:30:33;6.50;;;4.70;;
58661;SDS011;44432;49.786;22.760;2023-06-19T12:33:05;5.80;;;5.10;;
58661;SDS011;44432;49.786;22.760;2023-06-19T12:35:37;5.80;;;4.50;;
58661;SDS011;44432;49.786;22.760;2023-06-19T12:38:09;5.50;;;4.90;;
58661;SDS011;44432;49.786;22.760;2023-06-19T12:40:40;5.30;;;4.40;;
58661;SDS011;44432;49.786;22.760;2023-06-19T12:43:11;6.60;;;5.00;;
58661;SDS011;44432;49.786;22.760;2023-06-19T12:45:42;6.60;;;5.40;;
58661;SDS011;44432;49.786;22.760;2023-06-19T12:48:13;6.70;;;5.30;;
58661;SDS011;44432;49.786;22.760;2023-06-19T12:50:45;7.20;;;5.40;;
58661;SDS011;44432;49.786;22.760;2023-06-19T12:53:15;10.70;;;5.30;;
58661;SDS011;44432;49.786;22.760;2023-06-19T12:55:47;5.40;;;4.80;;
58661;SDS011;44432;49.786;22.760;2023-06-19T12:58:17;9.30;;;5.50;;
58661;SDS011;44432;49.786;22.760;2023-06-19T13:00:48;5.50;;;5.00;;
58661;SDS011;44432;49.786;22.760;2023-06-19T13:03:19;5.80;;;5.20;;
58661;SDS011;44432;49.786;22.760;2023-06-19T13:05:50;5.90;;;5.30;;
58661;SDS011;44432;49.786;22.760;2023-06-19T13:08:21;8.50;;;5.30;;
58661;SDS011;44432;49.786;22.760;2023-06-19T13:10:52;6.70;;;5.70;;
58661;SDS011;44432;49.786;22.760;2023-06-19T13:13:22;7.70;;;5.50;;
58661;SDS011;44432;49.786;22.760;2023-06-19T13:15:53;10.40;;;6.10;;
58661;SDS011;44432;49.786;22.760;2023-06-19T13:20:54;9.60;;;6.00;;
58661;SDS011;44432;49.786;22.760;2023-06-19T13:23:25;6.10;;;5.40;;
58661;SDS011;44432;49.786;22.760;2023-06-19T13:25:56;7.50;;;6.40;;
58661;SDS011;44432;49.786;22.760;2023-06-19T13:28:27;9.40;;;6.50;;
58661;SDS011;44432;49.786;22.760;2023-06-19T13:30:57;6.80;;;6.10;;
58661;SDS011;44432;49.786;22.760;2023-06-19T13:33:28;6.80;;;5.60;;
58661;SDS011;44432;49.786;22.760;2023-06-19T13:35:59;9.40;;;6.40;;
58661;SDS011;44432;49.786;22.760;2023-06-19T13:38:29;7.70;;;6.50;;
58661;SDS011;44432;49.786;22.760;2023-06-19T13:41:00;9.90;;;6.90;;
58661;SDS011;44432;49.786;22.760;2023-06-19T13:43:31;7.10;;;6.40;;
58661;SDS011;44432;49.786;22.760;2023-06-19T13:46:02;7.10;;;6.10;;
58661;SDS011;44432;49.786;22.760;2023-06-19T13:48:33;7.80;;;6.90;;
58661;SDS011;44432;49.786;22.760;2023-06-19T13:51:04;7.00;;;6.30;;
58661;SDS011;44432;49.786;22.760;2023-06-19T13:53:35;6.30;;;5.70;;
58661;SDS011;44432;49.786;22.760;2023-06-19T13:56:06;8.10;;;6.70;;
58661;SDS011;44432;49.786;22.760;2023-06-19T13:58:36;6.80;;;6.10;;
58661;SDS011;44432;49.786;22.760;2023-06-19T14:01:07;7.30;;;6.60;;
58661;SDS011;44432;49.786;22.760;2023-06-19T14:03:38;7.30;;;6.20;;
58661;SDS011;44432;49.786;22.760;2023-06-19T14:06:09;9.70;;;5.80;;
58661;SDS011;44432;49.786;22.760;2023-06-19T14:08:40;9.00;;;5.70;;
58661;SDS011;44432;49.786;22.760;2023-06-19T14:11:11;8.30;;;6.20;;
58661;SDS011;44432;49.786;22.760;2023-06-19T14:13:41;10.10;;;6.20;;
58661;SDS011;44432;49.786;22.760;2023-06-19T14:16:12;8.70;;;5.90;;
58661;SDS011;44432;49.786;22.760;2023-06-19T14:18:42;8.90;;;5.80;;
58661;SDS011;44432;49.786;22.760;2023-06-19T14:21:13;6.10;;;4.20;;
58661;SDS011;44432;49.786;22.760;2023-06-19T14:23:44;4.80;;;4.10;;
58661;SDS011;44432;49.786;22.760;2023-06-19T14:26:14;7.80;;;3.90;;
58661;SDS011;44432;49.786;22.760;2023-06-19T14:28:45;7.80;;;3.80;;
58661;SDS011;44432;49.786;22.760;2023-06-19T14:31:16;4.40;;;3.60;;
58661;SDS011;44432;49.786;22.760;2023-06-19T14:33:46;4.50;;;3.60;;
58661;SDS011;44432;49.786;22.760;2023-06-19T14:36:17;8.50;;;3.40;;
58661;SDS011;44432;49.786;22.760;2023-06-19T14:38:48;5.30;;;3.30;;
58661;SDS011;44432;49.786;22.760;2023-06-19T14:41:18;4.40;;;3.40;;
58661;SDS011;44432;49.786;22.760;2023-06-19T14:43:49;3.40;;;3.10;;
58661;SDS011;44432;49.786;22.760;2023-06-19T14:46:20;5.50;;;3.50;;
58661;SDS011;44432;49.786;22.760;2023-06-19T14:48:50;3.80;;;3.40;;
58661;SDS011;44432;49.786;22.760;2023-06-19T14:51:21;4.30;;;3.30;;
58661;SDS011;44432;49.786;22.760;2023-06-19T14:53:51;6.70;;;3.20;;
58661;SDS011;44432;49.786;22.760;2023-06-19T14:56:22;4.60;;;3.80;;
58661;SDS011;44432;49.786;22.760;2023-06-19T14:58:53;3.90;;;3.50;;
58661;SDS011;44432;49.786;22.760;2023-06-19T15:01:24;6.10;;;4.20;;
58661;SDS011;44432;49.786;22.760;2023-06-19T15:03:55;6.60;;;4.90;;